sensor_id;sensor_type;location;lat;lon;timestamp;P1;durP1;ratioP1;P2;durP2;ratioP2
12687;SDS011;6408;59.388;17.798;2022-11-14T00:00:24;16.87;;;2.20;;
12687;SDS011;6408;59.388;17.798;2022-11-14T00:02:52;4.00;;;1.90;;
12687;SDS011;6408;59.388;17.798;2022-11-14T00:05:20;28.10;;;3.30;;
12687;SDS011;6408;59.388;17.798;2022-11-14T00:07:47;26.17;;;2.90;;
12687;SDS011;6408;59.388;17.798;2022-11-14T00:10:15;5.70;;;1.70;;
12687;SDS011;6408;59.388;17.798;2022-11-14T00:12:45;9.17;;;1.97;;
12687;SDS011;6408;59.388;17.798;2022-11-14T00:15:12;24.20;;;2.70;;
12687;SDS011;6408;59.388;17.798;2022-11-14T00:17:40;5.30;;;1.80;;
12687;SDS011;6408;59.388;17.798;2022-11-14T00:20:09;25.27;;;2.63;;
12687;SDS011;6408;59.388;17.798;2022-11-14T00:22:37;11.70;;;2.20;;
12687;SDS011;6408;59.388;17.798;2022-11-14T00:25:05;10.57;;;2.43;;
12687;SDS011;6408;59.388;17.798;2022-11-14T00:27:32;5.77;;;2.40;;
12687;SDS011;6408;59.388;17.798;2022-11-14T00:30:02;46.83;;;4.37;;
12687;SDS011;6408;59.388;17.798;2022-11-14T00:32:30;9.40;;;2.23;;
12687;SDS011;6408;59.388;17.798;2022-11-14T00:34:58;25.73;;;2.77;;
12687;SDS011;6408;59.388;17.798;2022-11-14T00:37:25;10.33;;;2.57;;
12687;SDS011;6408;59.388;17.798;2022-11-14T00:39:53;18.13;;;2.73;;
12687;SDS011;6408;59.388;17.798;2022-11-14T00:42:20;8.73;;;2.80;;
12687;SDS011;6408;59.388;17.798;2022-11-14T00:44:47;38.07;;;3.73;;
12687;SDS011;6408;59.388;17.798;2022-11-14T00:47:16;16.20;;;3.20;;
12687;SDS011;6408;59.388;17.798;2022-11-14T00:49:44;15.00;;;3.07;;
12687;SDS011;6408;59.388;17.798;2022-11-14T00:52:11;7.73;;;3.03;;
12687;SDS011;6408;59.388;17.798;2022-11-14T00:54:39;6.47;;;3.00;;
12687;SDS011;6408;59.388;17.798;2022-11-14T00:57:07;5.90;;;3.10;;
12687;SDS011;6408;59.388;17.798;2022-11-14T00:59:34;10.67;;;3.13;;
12687;SDS011;6408;59.388;17.798;2022-11-14T01:02:02;13.10;;;3.40;;
12687;SDS011;6408;59.388;17.798;2022-11-14T01:04:31;8.43;;;3.47;;
12687;SDS011;6408;59.388;17.798;2022-11-14T01:06:58;11.57;;;3.60;;
12687;SDS011;6408;59.388;17.798;2022-11-14T01:09:25;6.90;;;3.27;;
12687;SDS011;6408;59.388;17.798;2022-11-14T01:11:52;8.97;;;3.47;;
12687;SDS011;6408;59.388;17.798;2022-11-14T01:14:20;9.17;;;3.47;;
12687;SDS011;6408;59.388;17.798;2022-11-14T01:16:47;11.50;;;3.03;;
12687;SDS011;6408;59.388;17.798;2022-11-14T01:19:14;12.37;;;3.20;;
12687;SDS011;6408;59.388;17.798;2022-11-14T01:21:43;13.63;;;3.50;;
12687;SDS011;6408;59.388;17.798;2022-11-14T01:24:11;10.13;;;3.60;;
12687;SDS011;6408;59.388;17.798;2022-11-14T01:26:38;8.00;;;3.50;;
12687;SDS011;6408;59.388;17.798;2022-11-14T01:29:06;9.23;;;3.50;;
12687;SDS011;6408;59.388;17.798;2022-11-14T01:31:33;14.17;;;3.73;;
12687;SDS011;6408;59.388;17.798;2022-11-14T01:34:00;12.33;;;4.47;;
12687;SDS011;6408;59.388;17.798;2022-11-14T01:36:28;7.73;;;4.00;;
12687;SDS011;6408;59.388;17.798;2022-11-14T01:38:57;6.00;;;3.50;;
12687;SDS011;6408;59.388;17.798;2022-11-14T01:41:24;7.63;;;4.00;;
12687;SDS011;6408;59.388;17.798;2022-11-14T01:43:51;8.97;;;3.50;;
12687;SDS011;6408;59.388;17.798;2022-11-14T01:46:20;8.43;;;4.30;;
12687;SDS011;6408;59.388;17.798;2022-11-14T01:48:49;7.23;;;3.70;;
12687;SDS011;6408;59.388;17.798;2022-11-14T01:51:23;8.67;;;4.17;;
12687;SDS011;6408;59.388;17.798;2022-11-14T01:53:55;6.23;;;4.10;;
12687;SDS011;6408;59.388;17.798;2022-11-14T01:56:27;5.27;;;3.67;;
12687;SDS011;6408;59.388;17.798;2022-11-14T01:58:59;7.90;;;4.10;;
12687;SDS011;6408;59.388;17.798;2022-11-14T02:01:31;7.57;;;4.40;;
12687;SDS011;6408;59.388;17.798;2022-11-14T02:04:01;8.90;;;4.53;;
12687;SDS011;6408;59.388;17.798;2022-11-14T02:06:31;6.10;;;3.93;;
12687;SDS011;6408;59.388;17.798;2022-11-14T02:09:02;8.47;;;4.73;;
12687;SDS011;6408;59.388;17.798;2022-11-14T02:11:32;6.43;;;4.43;;
12687;SDS011;6408;59.388;17.798;2022-11-14T02:14:02;6.53;;;4.40;;
12687;SDS011;6408;59.388;17.798;2022-11-14T02:16:30;12.73;;;4.77;;
12687;SDS011;6408;59.388;17.798;2022-11-14T02:18:58;9.23;;;4.97;;
12687;SDS011;6408;59.388;17.798;2022-11-14T02:21:27;8.97;;;4.80;;
12687;SDS011;6408;59.388;17.798;2022-11-14T02:23:54;11.27;;;5.47;;
12687;SDS011;6408;59.388;17.798;2022-11-14T02:26:21;12.47;;;5.70;;
12687;SDS011;6408;59.388;17.798;2022-11-14T02:28:49;10.20;;;5.33;;
12687;SDS011;6408;59.388;17.798;2022-11-14T02:31:16;17.23;;;5.80;;
12687;SDS011;6408;59.388;17.798;2022-11-14T02:33:44;14.53;;;5.53;;
12687;SDS011;6408;59.388;17.798;2022-11-14T02:36:10;12.63;;;5.10;;
12687;SDS011;6408;59.388;17.798;2022-11-14T02:38:40;11.00;;;5.70;;
12687;SDS011;6408;59.388;17.798;2022-11-14T02:41:07;13.37;;;5.63;;
12687;SDS011;6408;59.388;17.798;2022-11-14T02:43:35;17.07;;;5.73;;
12687;SDS011;6408;59.388;17.798;2022-11-14T02:46:02;14.00;;;6.00;;
12687;SDS011;6408;59.388;17.798;2022-11-14T02:48:30;11.30;;;6.03;;
12687;SDS011;6408;59.388;17.798;2022-11-14T02:50:57;11.30;;;5.40;;
12687;SDS011;6408;59.388;17.798;2022-11-14T02:53:25;13.63;;;5.83;;
12687;SDS011;6408;59.388;17.798;2022-11-14T02:55:54;12.00;;;6.10;;
12687;SDS011;6408;59.388;17.798;2022-11-14T02:58:21;14.13;;;6.23;;
12687;SDS011;6408;59.388;17.798;2022-11-14T03:00:48;13.63;;;5.67;;
12687;SDS011;6408;59.388;17.798;2022-11-14T03:03:15;14.77;;;6.37;;
12687;SDS011;6408;59.388;17.798;2022-11-14T03:05:43;13.47;;;6.47;;
12687;SDS011;6408;59.388;17.798;2022-11-14T03:08:10;12.70;;;6.03;;
12687;SDS011;6408;59.388;17.798;2022-11-14T03:10:37;19.03;;;5.80;;
12687;SDS011;6408;59.388;17.798;2022-11-14T03:13:06;16.67;;;6.07;;
12687;SDS011;6408;59.388;17.798;2022-11-14T03:15:35;13.73;;;5.93;;
12687;SDS011;6408;59.388;17.798;2022-11-14T03:18:03;13.33;;;5.20;;
12687;SDS011;6408;59.388;17.798;2022-11-14T03:20:30;15.70;;;6.10;;
12687;SDS011;6408;59.388;17.798;2022-11-14T03:22:58;15.63;;;6.60;;
12687;SDS011;6408;59.388;17.798;2022-11-14T03:25:25;20.07;;;6.03;;
12687;SDS011;6408;59.388;17.798;2022-11-14T03:27:53;17.77;;;6.03;;
12687;SDS011;6408;59.388;17.798;2022-11-14T03:30:22;13.63;;;5.97;;
12687;SDS011;6408;59.388;17.798;2022-11-14T03:32:49;28.53;;;6.93;;
12687;SDS011;6408;59.388;17.798;2022-11-14T03:35:17;19.13;;;7.17;;
12687;SDS011;6408;59.388;17.798;2022-11-14T03:37:44;19.43;;;7.00;;
12687;SDS011;6408;59.388;17.798;2022-11-14T03:40:12;18.27;;;6.57;;
12687;SDS011;6408;59.388;17.798;2022-11-14T03:42:39;19.90;;;6.63;;
12687;SDS011;6408;59.388;17.798;2022-11-14T03:45:06;15.23;;;6.03;;
12687;SDS011;6408;59.388;17.798;2022-11-14T03:47:36;15.63;;;6.63;;
12687;SDS011;6408;59.388;17.798;2022-11-14T03:50:04;13.60;;;6.10;;
12687;SDS011;6408;59.388;17.798;2022-11-14T03:52:32;23.53;;;6.67;;
12687;SDS011;6408;59.388;17.798;2022-11-14T03:54:59;21.73;;;7.17;;
12687;SDS011;6408;59.388;17.798;2022-11-14T03:57:26;24.80;;;7.67;;
12687;SDS011;6408;59.388;17.798;2022-11-14T03:59:53;22.03;;;6.53;;
12687;SDS011;6408;59.388;17.798;2022-11-14T04:02:21;16.37;;;7.03;;
12687;SDS011;6408;59.388;17.798;2022-11-14T04:04:50;25.67;;;6.70;;
12687;SDS011;6408;59.388;17.798;2022-11-14T04:07:17;15.23;;;6.37;;
12687;SDS011;6408;59.388;17.798;2022-11-14T04:09:44;24.27;;;7.00;;
12687;SDS011;6408;59.388;17.798;2022-11-14T04:12:12;15.93;;;6.63;;
12687;SDS011;6408;59.388;17.798;2022-11-14T04:14:39;15.23;;;6.27;;
12687;SDS011;6408;59.388;17.798;2022-11-14T04:17:07;21.23;;;6.93;;
12687;SDS011;6408;59.388;17.798;2022-11-14T04:19:35;14.73;;;5.93;;
12687;SDS011;6408;59.388;17.798;2022-11-14T04:22:04;15.70;;;5.97;;
12687;SDS011;6408;59.388;17.798;2022-11-14T04:24:31;15.87;;;5.87;;
12687;SDS011;6408;59.388;17.798;2022-11-14T04:26:59;14.30;;;5.70;;
12687;SDS011;6408;59.388;17.798;2022-11-14T04:29:26;10.80;;;4.90;;
12687;SDS011;6408;59.388;17.798;2022-11-14T04:31:53;12.37;;;4.97;;
12687;SDS011;6408;59.388;17.798;2022-11-14T04:34:21;9.27;;;4.77;;
12687;SDS011;6408;59.388;17.798;2022-11-14T04:36:48;9.70;;;4.90;;
12687;SDS011;6408;59.388;17.798;2022-11-14T04:39:17;10.00;;;5.10;;
12687;SDS011;6408;59.388;17.798;2022-11-14T04:41:44;8.10;;;4.40;;
12687;SDS011;6408;59.388;17.798;2022-11-14T04:44:11;7.37;;;4.97;;
12687;SDS011;6408;59.388;17.798;2022-11-14T04:46:38;7.23;;;3.90;;
12687;SDS011;6408;59.388;17.798;2022-11-14T04:49:06;6.70;;;3.73;;
12687;SDS011;6408;59.388;17.798;2022-11-14T04:51:33;5.67;;;3.73;;
12687;SDS011;6408;59.388;17.798;2022-11-14T04:54:00;4.57;;;3.53;;
12687;SDS011;6408;59.388;17.798;2022-11-14T04:56:29;5.27;;;3.07;;
12687;SDS011;6408;59.388;17.798;2022-11-14T04:58:56;3.90;;;3.00;;
12687;SDS011;6408;59.388;17.798;2022-11-14T05:01:23;4.03;;;2.30;;
12687;SDS011;6408;59.388;17.798;2022-11-14T05:03:50;4.47;;;2.90;;
12687;SDS011;6408;59.388;17.798;2022-11-14T05:06:18;3.73;;;2.90;;
12687;SDS011;6408;59.388;17.798;2022-11-14T05:08:45;4.50;;;2.73;;
12687;SDS011;6408;59.388;17.798;2022-11-14T05:11:13;3.00;;;2.60;;
12687;SDS011;6408;59.388;17.798;2022-11-14T05:13:41;3.37;;;2.30;;
12687;SDS011;6408;59.388;17.798;2022-11-14T05:16:09;2.90;;;1.93;;
12687;SDS011;6408;59.388;17.798;2022-11-14T05:18:36;2.10;;;1.90;;
12687;SDS011;6408;59.388;17.798;2022-11-14T05:21:04;4.73;;;2.00;;
12687;SDS011;6408;59.388;17.798;2022-11-14T05:23:32;2.70;;;2.17;;
12687;SDS011;6408;59.388;17.798;2022-11-14T05:26:00;2.37;;;2.17;;
12687;SDS011;6408;59.388;17.798;2022-11-14T05:28:29;3.17;;;2.30;;
12687;SDS011;6408;59.388;17.798;2022-11-14T05:31:02;2.20;;;2.00;;
12687;SDS011;6408;59.388;17.798;2022-11-14T05:33:30;2.80;;;2.40;;
12687;SDS011;6408;59.388;17.798;2022-11-14T05:36:00;2.70;;;2.17;;
12687;SDS011;6408;59.388;17.798;2022-11-14T05:38:28;2.23;;;1.80;;
12687;SDS011;6408;59.388;17.798;2022-11-14T05:40:55;3.50;;;2.30;;
12687;SDS011;6408;59.388;17.798;2022-11-14T05:43:23;2.80;;;1.93;;
12687;SDS011;6408;59.388;17.798;2022-11-14T05:45:57;2.03;;;1.70;;
12687;SDS011;6408;59.388;17.798;2022-11-14T05:48:26;2.30;;;2.10;;
12687;SDS011;6408;59.388;17.798;2022-11-14T05:50:54;2.60;;;2.10;;
12687;SDS011;6408;59.388;17.798;2022-11-14T05:53:21;2.90;;;2.00;;
12687;SDS011;6408;59.388;17.798;2022-11-14T05:55:48;3.20;;;2.77;;
12687;SDS011;6408;59.388;17.798;2022-11-14T05:58:15;5.17;;;2.40;;
12687;SDS011;6408;59.388;17.798;2022-11-14T06:00:44;2.97;;;2.23;;
12687;SDS011;6408;59.388;17.798;2022-11-14T06:03:11;3.00;;;1.97;;
12687;SDS011;6408;59.388;17.798;2022-11-14T06:05:40;2.33;;;1.83;;
12687;SDS011;6408;59.388;17.798;2022-11-14T06:08:08;1.60;;;1.50;;
12687;SDS011;6408;59.388;17.798;2022-11-14T06:10:36;2.00;;;1.50;;
12687;SDS011;6408;59.388;17.798;2022-11-14T06:13:03;2.20;;;1.63;;
12687;SDS011;6408;59.388;17.798;2022-11-14T06:15:30;3.10;;;1.70;;
12687;SDS011;6408;59.388;17.798;2022-11-14T06:17:57;4.10;;;1.80;;
12687;SDS011;6408;59.388;17.798;2022-11-14T06:20:24;4.53;;;1.77;;
12687;SDS011;6408;59.388;17.798;2022-11-14T06:22:54;1.70;;;1.33;;
12687;SDS011;6408;59.388;17.798;2022-11-14T06:25:21;2.70;;;1.60;;
12687;SDS011;6408;59.388;17.798;2022-11-14T06:27:48;2.23;;;1.57;;
12687;SDS011;6408;59.388;17.798;2022-11-14T06:30:15;2.70;;;1.60;;
12687;SDS011;6408;59.388;17.798;2022-11-14T06:32:43;3.90;;;1.57;;
12687;SDS011;6408;59.388;17.798;2022-11-14T06:35:10;1.60;;;1.50;;
12687;SDS011;6408;59.388;17.798;2022-11-14T06:37:37;1.90;;;1.73;;
12687;SDS011;6408;59.388;17.798;2022-11-14T06:40:08;2.30;;;1.47;;
12687;SDS011;6408;59.388;17.798;2022-11-14T06:42:36;2.73;;;1.63;;
12687;SDS011;6408;59.388;17.798;2022-11-14T06:45:03;2.67;;;1.67;;
12687;SDS011;6408;59.388;17.798;2022-11-14T06:47:31;1.60;;;1.40;;
12687;SDS011;6408;59.388;17.798;2022-11-14T06:49:58;1.73;;;1.33;;
12687;SDS011;6408;59.388;17.798;2022-11-14T06:52:25;1.60;;;1.37;;
12687;SDS011;6408;59.388;17.798;2022-11-14T06:54:52;1.60;;;1.23;;
12687;SDS011;6408;59.388;17.798;2022-11-14T06:57:21;1.57;;;1.33;;
12687;SDS011;6408;59.388;17.798;2022-11-14T06:59:48;2.90;;;1.37;;
12687;SDS011;6408;59.388;17.798;2022-11-14T07:02:16;2.30;;;1.37;;
12687;SDS011;6408;59.388;17.798;2022-11-14T07:04:43;1.37;;;1.00;;
12687;SDS011;6408;59.388;17.798;2022-11-14T07:07:10;1.20;;;0.97;;
12687;SDS011;6408;59.388;17.798;2022-11-14T07:09:37;0.87;;;0.80;;
12687;SDS011;6408;59.388;17.798;2022-11-14T07:12:04;0.90;;;0.90;;
12687;SDS011;6408;59.388;17.798;2022-11-14T07:14:34;0.80;;;0.80;;
12687;SDS011;6408;59.388;17.798;2022-11-14T07:17:01;0.97;;;0.90;;
12687;SDS011;6408;59.388;17.798;2022-11-14T07:19:28;1.00;;;0.87;;
12687;SDS011;6408;59.388;17.798;2022-11-14T07:21:55;0.63;;;0.63;;
12687;SDS011;6408;59.388;17.798;2022-11-14T07:24:22;1.50;;;0.90;;
12687;SDS011;6408;59.388;17.798;2022-11-14T07:26:49;0.80;;;0.80;;
12687;SDS011;6408;59.388;17.798;2022-11-14T07:29:16;0.60;;;0.60;;
12687;SDS011;6408;59.388;17.798;2022-11-14T07:31:45;0.70;;;0.60;;
12687;SDS011;6408;59.388;17.798;2022-11-14T07:34:12;1.43;;;0.40;;
12687;SDS011;6408;59.388;17.798;2022-11-14T07:36:39;0.40;;;0.40;;
12687;SDS011;6408;59.388;17.798;2022-11-14T07:39:07;1.83;;;0.30;;
12687;SDS011;6408;59.388;17.798;2022-11-14T07:41:34;0.50;;;0.50;;
12687;SDS011;6408;59.388;17.798;2022-11-14T07:44:01;1.63;;;0.50;;
12687;SDS011;6408;59.388;17.798;2022-11-14T07:46:28;0.33;;;0.33;;
12687;SDS011;6408;59.388;17.798;2022-11-14T07:48:57;0.73;;;0.57;;
12687;SDS011;6408;59.388;17.798;2022-11-14T07:51:24;2.10;;;0.70;;
12687;SDS011;6408;59.388;17.798;2022-11-14T07:53:51;0.50;;;0.50;;
12687;SDS011;6408;59.388;17.798;2022-11-14T07:56:18;0.43;;;0.43;;
12687;SDS011;6408;59.388;17.798;2022-11-14T07:58:46;0.40;;;0.40;;
12687;SDS011;6408;59.388;17.798;2022-11-14T08:01:14;0.70;;;0.40;;
12687;SDS011;6408;59.388;17.798;2022-11-14T08:03:41;0.43;;;0.43;;
12687;SDS011;6408;59.388;17.798;2022-11-14T08:06:11;0.30;;;0.30;;
12687;SDS011;6408;59.388;17.798;2022-11-14T08:08:39;0.20;;;0.20;;
12687;SDS011;6408;59.388;17.798;2022-11-14T08:11:07;0.20;;;0.20;;
12687;SDS011;6408;59.388;17.798;2022-11-14T08:13:35;0.40;;;0.27;;
12687;SDS011;6408;59.388;17.798;2022-11-14T08:16:02;0.30;;;0.30;;
12687;SDS011;6408;59.388;17.798;2022-11-14T08:18:31;0.50;;;0.20;;
12687;SDS011;6408;59.388;17.798;2022-11-14T08:20:58;0.30;;;0.30;;
12687;SDS011;6408;59.388;17.798;2022-11-14T08:23:29;0.50;;;0.40;;
12687;SDS011;6408;59.388;17.798;2022-11-14T08:25:57;0.30;;;0.30;;
12687;SDS011;6408;59.388;17.798;2022-11-14T08:28:24;0.20;;;0.20;;
12687;SDS011;6408;59.388;17.798;2022-11-14T08:30:51;0.20;;;0.20;;
12687;SDS011;6408;59.388;17.798;2022-11-14T08:33:19;0.30;;;0.20;;
12687;SDS011;6408;59.388;17.798;2022-11-14T08:35:47;0.50;;;0.40;;
12687;SDS011;6408;59.388;17.798;2022-11-14T08:38:14;0.30;;;0.30;;
12687;SDS011;6408;59.388;17.798;2022-11-14T08:40:43;0.27;;;0.27;;
12687;SDS011;6408;59.388;17.798;2022-11-14T08:43:10;0.20;;;0.20;;
12687;SDS011;6408;59.388;17.798;2022-11-14T08:45:37;0.77;;;0.50;;
12687;SDS011;6408;59.388;17.798;2022-11-14T08:48:05;0.23;;;0.23;;
12687;SDS011;6408;59.388;17.798;2022-11-14T08:50:32;0.73;;;0.30;;
12687;SDS011;6408;59.388;17.798;2022-11-14T08:53:00;0.40;;;0.40;;
12687;SDS011;6408;59.388;17.798;2022-11-14T08:55:27;0.40;;;0.40;;
12687;SDS011;6408;59.388;17.798;2022-11-14T08:57:55;0.20;;;0.20;;
12687;SDS011;6408;59.388;17.798;2022-11-14T09:00:23;0.63;;;0.43;;
12687;SDS011;6408;59.388;17.798;2022-11-14T09:02:50;0.20;;;0.20;;
12687;SDS011;6408;59.388;17.798;2022-11-14T09:05:18;1.20;;;0.30;;
12687;SDS011;6408;59.388;17.798;2022-11-14T09:07:45;0.20;;;0.20;;
12687;SDS011;6408;59.388;17.798;2022-11-14T09:10:12;1.27;;;0.30;;
12687;SDS011;6408;59.388;17.798;2022-11-14T09:12:40;0.17;;;0.17;;
12687;SDS011;6408;59.388;17.798;2022-11-14T09:15:09;0.10;;;0.10;;
12687;SDS011;6408;59.388;17.798;2022-11-14T09:17:36;0.30;;;0.27;;
12687;SDS011;6408;59.388;17.798;2022-11-14T09:20:04;0.50;;;0.20;;
12687;SDS011;6408;59.388;17.798;2022-11-14T09:22:31;0.20;;;0.20;;
12687;SDS011;6408;59.388;17.798;2022-11-14T09:24:58;0.03;;;0.03;;
12687;SDS011;6408;59.388;17.798;2022-11-14T09:27:26;0.73;;;0.23;;
12687;SDS011;6408;59.388;17.798;2022-11-14T09:29:53;0.20;;;0.20;;
12687;SDS011;6408;59.388;17.798;2022-11-14T09:32:21;0.23;;;0.23;;
12687;SDS011;6408;59.388;17.798;2022-11-14T09:34:48;0.30;;;0.30;;
12687;SDS011;6408;59.388;17.798;2022-11-14T09:37:15;0.30;;;0.30;;
12687;SDS011;6408;59.388;17.798;2022-11-14T09:39:42;0.23;;;0.23;;
12687;SDS011;6408;59.388;17.798;2022-11-14T09:42:15;0.30;;;0.30;;
12687;SDS011;6408;59.388;17.798;2022-11-14T09:44:53;1.00;;;0.50;;
12687;SDS011;6408;59.388;17.798;2022-11-14T09:47:23;0.37;;;0.37;;
12687;SDS011;6408;59.388;17.798;2022-11-14T09:49:54;0.40;;;0.40;;
12687;SDS011;6408;59.388;17.798;2022-11-14T09:52:27;1.00;;;0.60;;
12687;SDS011;6408;59.388;17.798;2022-11-14T09:55:00;0.83;;;0.83;;
12687;SDS011;6408;59.388;17.798;2022-11-14T09:57:34;0.90;;;0.53;;
12687;SDS011;6408;59.388;17.798;2022-11-14T10:00:02;0.50;;;0.50;;
12687;SDS011;6408;59.388;17.798;2022-11-14T10:02:39;0.80;;;0.73;;
12687;SDS011;6408;59.388;17.798;2022-11-14T10:05:28;0.70;;;0.70;;
12687;SDS011;6408;59.388;17.798;2022-11-14T10:08:14;0.80;;;0.60;;
12687;SDS011;6408;59.388;17.798;2022-11-14T10:10:56;0.60;;;0.60;;
12687;SDS011;6408;59.388;17.798;2022-11-14T10:13:39;0.67;;;0.67;;
12687;SDS011;6408;59.388;17.798;2022-11-14T10:16:28;0.80;;;0.60;;
12687;SDS011;6408;59.388;17.798;2022-11-14T10:19:10;0.60;;;0.60;;
12687;SDS011;6408;59.388;17.798;2022-11-14T10:21:47;0.90;;;0.90;;
12687;SDS011;6408;59.388;17.798;2022-11-14T10:24:36;0.93;;;0.80;;
12687;SDS011;6408;59.388;17.798;2022-11-14T10:27:16;0.70;;;0.70;;
12687;SDS011;6408;59.388;17.798;2022-11-14T10:29:49;1.60;;;0.90;;
12687;SDS011;6408;59.388;17.798;2022-11-14T10:32:32;0.97;;;0.90;;
12687;SDS011;6408;59.388;17.798;2022-11-14T10:35:14;1.20;;;0.90;;
12687;SDS011;6408;59.388;17.798;2022-11-14T10:37:47;0.90;;;0.90;;
12687;SDS011;6408;59.388;17.798;2022-11-14T10:40:21;1.37;;;1.00;;
12687;SDS011;6408;59.388;17.798;2022-11-14T10:42:53;1.03;;;0.93;;
12687;SDS011;6408;59.388;17.798;2022-11-14T10:45:24;1.73;;;1.10;;
12687;SDS011;6408;59.388;17.798;2022-11-14T10:47:55;1.00;;;1.00;;
12687;SDS011;6408;59.388;17.798;2022-11-14T10:50:28;2.13;;;1.23;;
12687;SDS011;6408;59.388;17.798;2022-11-14T10:53:06;0.90;;;0.83;;
12687;SDS011;6408;59.388;17.798;2022-11-14T10:55:40;1.13;;;0.90;;
12687;SDS011;6408;59.388;17.798;2022-11-14T10:58:07;0.87;;;0.87;;
12687;SDS011;6408;59.388;17.798;2022-11-14T11:00:35;1.30;;;1.10;;
12687;SDS011;6408;59.388;17.798;2022-11-14T11:03:03;1.40;;;1.30;;
12687;SDS011;6408;59.388;17.798;2022-11-14T11:05:43;1.00;;;1.00;;
12687;SDS011;6408;59.388;17.798;2022-11-14T11:08:17;2.10;;;0.90;;
12687;SDS011;6408;59.388;17.798;2022-11-14T11:11:03;1.77;;;1.00;;
12687;SDS011;6408;59.388;17.798;2022-11-14T11:13:50;0.80;;;0.80;;
12687;SDS011;6408;59.388;17.798;2022-11-14T11:16:20;1.17;;;1.07;;
12687;SDS011;6408;59.388;17.798;2022-11-14T11:18:48;1.00;;;1.00;;
12687;SDS011;6408;59.388;17.798;2022-11-14T11:21:18;1.13;;;1.03;;
12687;SDS011;6408;59.388;17.798;2022-11-14T11:23:50;1.20;;;0.93;;
12687;SDS011;6408;59.388;17.798;2022-11-14T11:26:19;0.80;;;0.80;;
12687;SDS011;6408;59.388;17.798;2022-11-14T11:29:13;0.70;;;0.70;;
12687;SDS011;6408;59.388;17.798;2022-11-14T11:31:51;1.43;;;0.80;;
12687;SDS011;6408;59.388;17.798;2022-11-14T11:34:21;0.60;;;0.60;;
12687;SDS011;6408;59.388;17.798;2022-11-14T11:36:52;0.53;;;0.53;;
12687;SDS011;6408;59.388;17.798;2022-11-14T11:39:25;0.50;;;0.50;;
12687;SDS011;6408;59.388;17.798;2022-11-14T11:41:54;0.70;;;0.70;;
12687;SDS011;6408;59.388;17.798;2022-11-14T11:44:28;0.60;;;0.60;;
12687;SDS011;6408;59.388;17.798;2022-11-14T11:47:00;1.70;;;0.50;;
12687;SDS011;6408;59.388;17.798;2022-11-14T11:49:33;0.50;;;0.50;;
12687;SDS011;6408;59.388;17.798;2022-11-14T11:52:11;0.50;;;0.50;;
12687;SDS011;6408;59.388;17.798;2022-11-14T11:54:45;1.20;;;0.63;;
12687;SDS011;6408;59.388;17.798;2022-11-14T11:57:28;0.60;;;0.60;;
12687;SDS011;6408;59.388;17.798;2022-11-14T12:00:02;0.40;;;0.40;;
12687;SDS011;6408;59.388;17.798;2022-11-14T12:02:34;0.60;;;0.60;;
12687;SDS011;6408;59.388;17.798;2022-11-14T12:05:05;0.73;;;0.57;;
12687;SDS011;6408;59.388;17.798;2022-11-14T12:07:41;0.50;;;0.50;;
12687;SDS011;6408;59.388;17.798;2022-11-14T12:10:14;0.80;;;0.80;;
12687;SDS011;6408;59.388;17.798;2022-11-14T12:12:55;0.60;;;0.60;;
12687;SDS011;6408;59.388;17.798;2022-11-14T12:15:43;0.50;;;0.50;;
12687;SDS011;6408;59.388;17.798;2022-11-14T12:18:21;0.70;;;0.50;;
12687;SDS011;6408;59.388;17.798;2022-11-14T12:21:03;0.53;;;0.53;;
12687;SDS011;6408;59.388;17.798;2022-11-14T12:23:54;0.57;;;0.57;;
12687;SDS011;6408;59.388;17.798;2022-11-14T12:26:50;0.50;;;0.50;;
12687;SDS011;6408;59.388;17.798;2022-11-14T12:29:40;0.50;;;0.50;;
12687;SDS011;6408;59.388;17.798;2022-11-14T12:32:25;0.90;;;0.50;;
12687;SDS011;6408;59.388;17.798;2022-11-14T12:34:56;0.60;;;0.60;;
12687;SDS011;6408;59.388;17.798;2022-11-14T12:37:27;0.83;;;0.50;;
12687;SDS011;6408;59.388;17.798;2022-11-14T12:40:00;0.50;;;0.50;;
12687;SDS011;6408;59.388;17.798;2022-11-14T12:42:29;0.90;;;0.70;;
12687;SDS011;6408;59.388;17.798;2022-11-14T12:44:58;0.90;;;0.70;;
12687;SDS011;6408;59.388;17.798;2022-11-14T12:47:25;0.70;;;0.70;;
12687;SDS011;6408;59.388;17.798;2022-11-14T12:49:58;0.80;;;0.80;;
12687;SDS011;6408;59.388;17.798;2022-11-14T12:52:43;0.60;;;0.60;;
12687;SDS011;6408;59.388;17.798;2022-11-14T12:58:20;0.77;;;0.77;;
12687;SDS011;6408;59.388;17.798;2022-11-14T13:01:00;0.73;;;0.73;;
12687;SDS011;6408;59.388;17.798;2022-11-14T13:03:46;0.60;;;0.60;;
12687;SDS011;6408;59.388;17.798;2022-11-14T13:06:25;0.80;;;0.80;;
12687;SDS011;6408;59.388;17.798;2022-11-14T13:09:06;1.53;;;0.70;;
12687;SDS011;6408;59.388;17.798;2022-11-14T13:11:54;0.80;;;0.60;;
12687;SDS011;6408;59.388;17.798;2022-11-14T13:14:50;0.80;;;0.73;;
12687;SDS011;6408;59.388;17.798;2022-11-14T13:17:36;0.90;;;0.90;;
12687;SDS011;6408;59.388;17.798;2022-11-14T13:20:30;1.93;;;1.20;;
12687;SDS011;6408;59.388;17.798;2022-11-14T13:26:36;0.80;;;0.70;;
12687;SDS011;6408;59.388;17.798;2022-11-14T13:29:04;0.80;;;0.80;;
12687;SDS011;6408;59.388;17.798;2022-11-14T13:31:44;0.70;;;0.70;;
12687;SDS011;6408;59.388;17.798;2022-11-14T13:34:27;1.70;;;0.93;;
12687;SDS011;6408;59.388;17.798;2022-11-14T13:37:01;0.80;;;0.80;;
12687;SDS011;6408;59.388;17.798;2022-11-14T13:39:34;1.33;;;1.23;;
12687;SDS011;6408;59.388;17.798;2022-11-14T13:42:10;2.23;;;1.20;;
12687;SDS011;6408;59.388;17.798;2022-11-14T13:48:06;0.80;;;0.80;;
12687;SDS011;6408;59.388;17.798;2022-11-14T13:50:50;0.80;;;0.80;;
12687;SDS011;6408;59.388;17.798;2022-11-14T13:53:22;1.47;;;1.03;;
12687;SDS011;6408;59.388;17.798;2022-11-14T13:55:54;1.23;;;1.13;;
12687;SDS011;6408;59.388;17.798;2022-11-14T13:58:28;1.57;;;1.47;;
12687;SDS011;6408;59.388;17.798;2022-11-14T14:01:07;1.43;;;1.33;;
12687;SDS011;6408;59.388;17.798;2022-11-14T14:03:49;1.13;;;1.03;;
12687;SDS011;6408;59.388;17.798;2022-11-14T14:06:30;1.00;;;1.00;;
12687;SDS011;6408;59.388;17.798;2022-11-14T14:09:16;1.00;;;1.00;;
12687;SDS011;6408;59.388;17.798;2022-11-14T14:11:58;1.30;;;1.00;;
12687;SDS011;6408;59.388;17.798;2022-11-14T14:14:48;0.90;;;0.90;;
12687;SDS011;6408;59.388;17.798;2022-11-14T14:17:30;1.33;;;1.17;;
12687;SDS011;6408;59.388;17.798;2022-11-14T14:20:09;1.50;;;1.40;;
12687;SDS011;6408;59.388;17.798;2022-11-14T14:22:49;1.20;;;1.10;;
12687;SDS011;6408;59.388;17.798;2022-11-14T14:25:26;1.40;;;1.30;;
12687;SDS011;6408;59.388;17.798;2022-11-14T14:28:03;0.90;;;0.90;;
12687;SDS011;6408;59.388;17.798;2022-11-14T14:30:36;1.10;;;1.00;;
12687;SDS011;6408;59.388;17.798;2022-11-14T14:33:09;1.63;;;1.10;;
12687;SDS011;6408;59.388;17.798;2022-11-14T14:35:39;0.87;;;0.87;;
12687;SDS011;6408;59.388;17.798;2022-11-14T14:38:21;1.17;;;1.07;;
12687;SDS011;6408;59.388;17.798;2022-11-14T14:40:49;1.63;;;1.20;;
12687;SDS011;6408;59.388;17.798;2022-11-14T14:43:23;1.10;;;1.00;;
12687;SDS011;6408;59.388;17.798;2022-11-14T14:45:54;0.90;;;0.90;;
12687;SDS011;6408;59.388;17.798;2022-11-14T14:48:23;1.10;;;1.00;;
12687;SDS011;6408;59.388;17.798;2022-11-14T14:50:55;1.27;;;1.17;;
12687;SDS011;6408;59.388;17.798;2022-11-14T14:53:24;1.30;;;1.20;;
12687;SDS011;6408;59.388;17.798;2022-11-14T14:55:53;1.20;;;1.10;;
12687;SDS011;6408;59.388;17.798;2022-11-14T14:58:23;1.23;;;1.13;;
12687;SDS011;6408;59.388;17.798;2022-11-14T15:00:53;2.03;;;1.20;;
12687;SDS011;6408;59.388;17.798;2022-11-14T15:03:23;1.10;;;1.00;;
12687;SDS011;6408;59.388;17.798;2022-11-14T15:06:00;2.07;;;1.03;;
12687;SDS011;6408;59.388;17.798;2022-11-14T15:08:29;1.77;;;1.00;;
12687;SDS011;6408;59.388;17.798;2022-11-14T15:11:01;1.13;;;1.03;;
12687;SDS011;6408;59.388;17.798;2022-11-14T15:13:29;1.70;;;1.10;;
12687;SDS011;6408;59.388;17.798;2022-11-14T15:15:56;1.70;;;1.40;;